Time;durP1;ratioP1;P1;durP2;ratioP2;P2;SDS_P1;SDS_P2;PMS_P1;PMS_P2;Temp;Humidity;BMP_temperature;BMP_pressure;BME280_temperature;BME280_humidity;BME280_pressure;Samples;Min_cycle;Max_cycle;Signal;HPM_P1;HPM_P2
2021/08/31 00:00:18;;;;;;;9.30;7.25;;;;;;;13.05;100.00;98502.00;4089650;86;21045;-84
2021/08/31 00:06:21;;;;;;;8.45;6.58;;;;;;;12.93;100.00;98489.30;4086668;84;21448;-84
2021/08/31 00:12:22;;;;;;;11.65;5.45;;;;;;;12.94;100.00;98483.41;4074614;86;21109;-84
2021/08/31 00:18:27;;;;;;;8.75;6.50;;;;;;;13.05;100.00;98480.02;4074673;86;21627;-83
2021/08/31 00:24:28;;;;;;;10.10;7.40;;;;;;;13.17;100.00;98477.40;4071368;86;21071;-84
2021/08/31 00:30:29;;;;;;;5.97;4.97;;;;;;;13.14;100.00;98477.59;4073370;85;21450;-85
2021/08/31 00:36:31;;;;;;;10.65;5.28;;;;;;;13.13;100.00;98488.99;4077944;86;21019;-86
2021/08/31 00:55:50;;;;;;;8.78;5.42;;;;;;;13.20;100.00;98500.70;4078372;86;21081;-87
2021/08/31 01:01:53;;;;;;;7.03;4.92;;;;;;;13.15;100.00;98504.49;4079571;86;21098;-86
2021/08/31 01:07:56;;;;;;;7.53;5.00;;;;;;;12.96;100.00;98492.61;4076941;86;21066;-86
2021/08/31 01:14:07;;;;;;;8.00;5.37;;;;;;;12.98;100.00;98500.66;4080293;85;22131;-87
2021/08/31 01:33:26;;;;;;;12.28;5.95;;;;;;;12.94;100.00;98499.89;3948742;89;21127;-87
2021/08/31 01:46:18;;;;;;;10.75;6.08;;;;;;;12.68;100.00;98492.78;3973025;89;21079;-86
2021/08/31 01:52:20;;;;;;;7.95;5.42;;;;;;;12.76;100.00;98484.11;3961081;89;21224;-86
2021/08/31 01:58:21;;;;;;;8.58;4.97;;;;;;;12.87;100.00;98482.09;4074380;85;21122;-85
2021/08/31 02:04:22;;;;;;;8.35;5.55;;;;;;;12.90;100.00;98474.41;4074708;85;21054;-86
2021/08/31 02:10:28;;;;;;;7.37;4.50;;;;;;;13.00;100.00;98469.45;4077776;84;21011;-86
2021/08/31 02:16:30;;;;;;;5.50;4.85;;;;;;;12.96;100.00;98476.13;4095160;86;21021;-86
2021/08/31 02:29:42;;;;;;;6.28;4.75;;;;;;;12.89;100.00;98459.09;4100227;86;21380;-85
2021/08/31 02:35:43;;;;;;;6.40;4.42;;;;;;;12.80;100.00;98462.89;4099493;86;21478;-85
2021/08/31 02:41:58;;;;;;;6.10;4.28;;;;;;;12.83;100.00;98455.22;4082049;85;55150;-86
2021/08/31 02:48:09;;;;;;;5.60;4.15;;;;;;;12.85;100.00;98450.11;4089928;86;21039;-86
2021/08/31 02:54:10;;;;;;;5.22;3.98;;;;;;;12.83;100.00;98436.58;4084862;86;21575;-86
2021/08/31 03:00:30;;;;;;;7.28;5.17;;;;;;;12.84;100.00;98429.91;4088139;86;21081;-84
2021/08/31 03:06:31;;;;;;;5.35;4.58;;;;;;;12.86;100.00;98426.18;4089985;86;21034;-87
2021/08/31 03:13:19;;;;;;;6.53;4.17;;;;;;;12.85;100.00;98424.59;4098803;85;21061;-85
2021/08/31 03:19:23;;;;;;;4.83;3.92;;;;;;;12.83;100.00;98425.00;4031389;87;21073;-85
2021/08/31 03:25:25;;;;;;;4.92;3.67;;;;;;;12.81;100.00;98420.50;4039832;86;21124;-86
2021/08/31 03:31:35;;;;;;;7.30;5.03;;;;;;;12.84;100.00;98418.92;4061981;86;21027;-85
2021/08/31 03:38:01;;;;;;;5.10;4.05;;;;;;;12.86;100.00;98416.56;4051477;86;21081;-85
2021/08/31 03:44:25;;;;;;;6.40;4.42;;;;;;;12.87;100.00;98420.28;3966144;88;21104;-86
2021/08/31 03:50:50;;;;;;;6.55;4.62;;;;;;;12.93;100.00;98411.80;4042327;86;21685;-86
2021/08/31 03:56:51;;;;;;;6.40;5.17;;;;;;;12.93;100.00;98420.03;4044012;86;21034;-86
2021/08/31 04:02:52;;;;;;;9.85;4.97;;;;;;;13.00;100.00;98415.09;4038067;86;21046;-86
2021/08/31 04:08:54;;;;;;;5.30;4.35;;;;;;;13.00;100.00;98414.50;4037778;86;21089;-85
2021/08/31 04:14:55;;;;;;;5.75;4.47;;;;;;;12.99;100.00;98421.75;3991214;87;21586;-86
2021/08/31 04:20:56;;;;;;;6.62;4.67;;;;;;;13.04;100.00;98426.84;4009668;87;21036;-87
2021/08/31 04:26:57;;;;;;;6.05;4.87;;;;;;;13.05;100.00;98426.44;4013589;87;21594;-87
2021/08/31 04:32:59;;;;;;;5.78;4.60;;;;;;;13.09;100.00;98424.44;4021418;87;21062;-86
2021/08/31 04:39:00;;;;;;;5.05;4.08;;;;;;;13.07;100.00;98422.70;4016555;87;21104;-86
2021/08/31 04:51:32;;;;;;;6.78;4.83;;;;;;;13.01;100.00;98429.03;4001426;87;21065;-86
2021/08/31 04:57:34;;;;;;;10.32;6.00;;;;;;;12.90;100.00;98420.05;4005052;87;21056;-85
2021/08/31 05:03:57;;;;;;;4.50;4.10;;;;;;;13.01;100.00;98413.92;4004749;87;21123;-85
2021/08/31 05:09:59;;;;;;;6.78;3.62;;;;;;;13.01;100.00;98413.34;4009987;87;22401;-86
2021/08/31 05:16:02;;;;;;;6.35;4.30;;;;;;;13.03;100.00;98412.32;4079441;86;21176;-85
2021/08/31 05:22:10;;;;;;;5.12;3.67;;;;;;;13.05;100.00;98411.33;4071537;85;20994;-85
2021/08/31 05:28:11;;;;;;;5.87;3.70;;;;;;;13.05;100.00;98411.33;4085820;86;21096;-86
2021/08/31 05:34:12;;;;;;;6.72;4.17;;;;;;;13.13;100.00;98409.30;4073746;86;22334;-85
2021/08/31 05:41:06;;;;;;;5.50;3.75;;;;;;;13.24;100.00;98419.61;4083118;86;21035;-85
2021/08/31 05:47:15;;;;;;;5.05;3.30;;;;;;;13.26;100.00;98404.30;4087634;86;21054;-86
2021/08/31 05:53:16;;;;;;;5.78;4.35;;;;;;;13.20;100.00;98409.25;4085415;86;21057;-86
2021/08/31 05:59:18;;;;;;;10.68;3.80;;;;;;;13.19;100.00;98404.34;4074514;86;21036;-86
2021/08/31 06:05:24;;;;;;;4.08;3.37;;;;;;;13.26;100.00;98407.63;4080447;86;21123;-84
2021/08/31 06:11:29;;;;;;;4.00;3.30;;;;;;;13.29;100.00;98415.84;4030851;87;21031;-85
2021/08/31 06:17:32;;;;;;;4.05;3.17;;;;;;;13.29;100.00;98404.06;4021178;86;21021;-86
2021/08/31 06:23:50;;;;;;;4.45;2.98;;;;;;;13.28;100.00;98401.90;3998504;87;21091;-86
2021/08/31 06:29:54;;;;;;;;;;;;;;;13.32;100.00;98408.74;4095026;86;21130;-87
2021/08/31 06:36:29;;;;;;;4.72;3.33;;;;;;;13.35;100.00;98414.22;4067761;86;20503;-85
2021/08/31 06:42:52;;;;;;;5.15;2.87;;;;;;;13.33;100.00;98420.70;4079043;86;21132;-86
2021/08/31 06:48:53;;;;;;;5.55;3.90;;;;;;;13.34;100.00;98419.51;4082143;86;21023;-84
2021/08/31 06:55:08;;;;;;;7.08;4.65;;;;;;;13.37;100.00;98417.93;4129443;86;20980;-84
2021/08/31 07:01:13;;;;;;;7.30;5.20;;;;;;;13.40;100.00;98418.49;4060775;86;21657;-85
2021/08/31 07:07:15;;;;;;;11.50;8.45;;;;;;;13.46;100.00;98419.61;4074217;86;21565;-84
2021/08/31 07:13:16;;;;;;;9.05;6.87;;;;;;;13.53;100.00;98418.17;4084314;86;21568;-85
2021/08/31 07:19:26;;;;;;;10.28;7.08;;;;;;;13.56;100.00;98427.75;3996090;88;21102;-85
2021/08/31 07:25:28;;;;;;;9.65;6.25;;;;;;;13.63;100.00;98430.44;4001872;87;21608;-86
2021/08/31 07:31:53;;;;;;;7.85;6.17;;;;;;;13.68;100.00;98432.75;4003055;88;21092;-84
2021/08/31 07:38:08;;;;;;;10.32;8.05;;;;;;;13.80;100.00;98439.69;4074065;86;21099;-85
2021/08/31 07:44:24;;;;;;;11.93;8.55;;;;;;;13.84;100.00;98440.45;4086009;86;21057;-85
2021/08/31 07:50:25;;;;;;;12.90;7.87;;;;;;;13.90;100.00;98442.93;4076454;86;21075;-86
2021/08/31 07:56:39;;;;;;;8.43;6.28;;;;;;;13.96;100.00;98448.16;4079550;86;21101;-85
2021/08/31 08:02:41;;;;;;;8.48;6.62;;;;;;;13.98;100.00;98453.44;4092622;86;21145;-86
2021/08/31 08:08:42;;;;;;;10.10;6.40;;;;;;;13.95;100.00;98460.38;4078782;86;21058;-85
2021/08/31 08:14:50;;;;;;;7.22;4.97;;;;;;;13.95;100.00;98463.88;4099737;86;21025;-86
2021/08/31 08:20:52;;;;;;;7.75;4.83;;;;;;;13.92;100.00;98472.96;4068120;85;21142;-86
2021/08/31 08:26:57;;;;;;;6.85;3.42;;;;;;;13.94;100.00;98481.59;4068378;86;21089;-85
2021/08/31 08:32:56;;;;;;;4.53;3.58;;;;;;;13.94;100.00;98477.47;4063090;85;21041;-87
2021/08/31 08:38:58;;;;;;;6.37;3.80;;;;;;;13.97;100.00;98460.14;4084765;86;21038;-86
2021/08/31 08:45:00;;;;;;;7.42;3.58;;;;;;;13.98;100.00;98457.56;4064388;86;21755;-85
2021/08/31 08:51:06;;;;;;;5.33;2.80;;;;;;;13.96;100.00;98444.83;4069304;86;22346;-85
2021/08/31 08:57:29;;;;;;;3.37;1.95;;;;;;;13.91;100.00;98438.98;4062719;86;21096;-84
2021/08/31 09:23:50;;;;;;;7.28;3.27;;;;;;;14.16;100.00;98438.09;3924046;90;21688;-86
2021/08/31 09:30:26;;;;;;;8.95;4.35;;;;;;;14.33;100.00;98424.73;3922646;87;21173;-84
2021/08/31 09:36:49;;;;;;;24.82;6.83;;;;;;;14.64;100.00;98424.14;4041002;86;21125;-85
2021/08/31 09:43:14;;;;;;;14.33;4.78;;;;;;;15.08;100.00;98410.84;4046947;86;21080;-85
2021/08/31 09:49:41;;;;;;;8.90;3.45;;;;;;;15.24;100.00;98409.60;4068087;85;21526;-84
2021/08/31 09:56:09;;;;;;;6.17;2.77;;;;;;;15.22;100.00;98418.89;4074574;85;21171;-84
2021/08/31 10:02:10;;;;;;;3.62;1.90;;;;;;;15.26;100.00;98432.03;4061509;85;21697;-84
2021/08/31 10:08:13;;;;;;;4.70;1.77;;;;;;;15.22;100.00;98440.95;4072767;85;21118;-85
2021/08/31 10:14:20;;;;;;;2.80;1.80;;;;;;;15.16;100.00;98442.62;4079278;85;21551;-84
2021/08/31 10:33:56;;;;;;;2.70;1.65;;;;;;;15.24;100.00;98435.80;4094600;85;21669;-85
2021/08/31 10:40:34;;;;;;;3.17;1.75;;;;;;;15.24;100.00;98430.87;4094133;85;21091;-86
2021/08/31 10:47:01;;;;;;;4.40;2.90;;;;;;;15.31;100.00;98428.02;3917249;89;21063;-84
2021/08/31 10:53:06;;;;;;;4.72;2.77;;;;;;;15.38;100.00;98417.66;4081799;85;21707;-84
2021/08/31 10:59:13;;;;;;;2.65;2.20;;;;;;;15.39;100.00;98418.45;4085658;86;22354;-85
2021/08/31 11:05:25;;;;;;;2.83;2.40;;;;;;;15.44;100.00;98416.60;4070845;86;21104;-85
2021/08/31 11:11:26;;;;;;;3.65;2.80;;;;;;;15.48;100.00;98429.13;4083075;86;21064;-85
2021/08/31 11:17:40;;;;;;;3.72;2.27;;;;;;;15.53;100.00;98423.10;4087084;85;21085;-84
2021/08/31 11:23:42;;;;;;;4.78;2.90;;;;;;;15.51;100.00;98430.25;4077942;86;21490;-85
2021/08/31 11:30:15;;;;;;;2.45;2.22;;;;;;;15.51;100.00;98443.45;4076325;86;21510;-84
2021/08/31 11:36:24;;;;;;;4.55;2.60;;;;;;;15.45;100.00;98429.97;4089083;86;21029;-86
2021/08/31 11:55:38;;;;;;;3.02;2.50;;;;;;;15.28;100.00;98435.16;4051707;86;21596;-86
2021/08/31 12:02:02;;;;;;;6.47;4.00;;;;;;;15.26;100.00;98419.62;4072606;86;21101;-86
2021/08/31 12:08:19;;;;;;;5.83;5.00;;;;;;;15.28;100.00;98402.06;4071706;86;21595;-85
2021/08/31 12:14:35;;;;;;;;;;;;;;;15.29;100.00;98409.13;4073773;86;22387;-86
2021/08/31 12:20:41;;;;;;;4.75;3.02;;;;;;;15.26;100.00;98424.34;4086073;86;20160;-86
2021/08/31 12:26:42;;;;;;;4.97;3.43;;;;;;;15.19;100.00;98439.02;4035834;87;21087;-87
2021/08/31 12:33:12;;;;;;;7.00;3.37;;;;;;;15.19;100.00;98450.67;4022775;87;21071;-86
2021/08/31 12:39:32;;;;;;;6.60;3.60;;;;;;;15.19;100.00;98451.43;4025461;87;21682;-87
2021/08/31 12:45:34;;;;;;;6.03;4.53;;;;;;;15.21;100.00;98435.84;4020140;87;21032;-87
2021/08/31 12:52:07;;;;;;;7.58;4.80;;;;;;;15.23;100.00;98428.73;4011351;87;21396;-87
2021/08/31 12:58:44;;;;;;;6.78;5.03;;;;;;;15.28;100.00;98427.47;4023338;87;21048;-86
2021/08/31 13:05:00;;;;;;;5.65;4.53;;;;;;;15.29;100.00;98415.23;4014140;87;21482;-85
2021/08/31 13:11:28;;;;;;;6.60;4.95;;;;;;;15.31;100.00;98419.74;3806286;92;21074;-86
2021/08/31 13:17:46;;;;;;;8.95;5.28;;;;;;;15.27;100.00;98424.52;3842607;91;21224;-86
2021/08/31 13:24:24;;;;;;;5.60;4.53;;;;;;;15.24;100.00;98417.09;3836876;91;21217;-86
2021/08/31 13:30:33;;;;;;;5.78;4.50;;;;;;;15.21;100.00;98403.55;3840403;91;21746;-85
2021/08/31 13:36:52;;;;;;;5.30;2.77;;;;;;;15.23;100.00;98404.52;4033669;87;21082;-86
2021/08/31 13:43:05;;;;;;;4.70;3.50;;;;;;;15.21;100.00;98412.41;4020905;87;21515;-85
2021/08/31 13:49:07;;;;;;;5.97;4.50;;;;;;;15.23;100.00;98403.13;4039227;87;21050;-86
2021/08/31 13:55:18;;;;;;;7.25;5.03;;;;;;;15.31;100.00;98415.02;4044224;87;21068;-86
2021/08/31 14:01:19;;;;;;;7.28;5.62;;;;;;;15.44;100.00;98420.73;3998345;88;21080;-85
2021/08/31 14:07:21;;;;;;;8.58;5.25;;;;;;;15.54;100.00;98423.30;4015725;87;21086;-86
2021/08/31 14:13:31;;;;;;;7.25;5.20;;;;;;;15.64;100.00;98424.31;4000889;86;21165;-85
2021/08/31 14:19:32;;;;;;;8.40;5.47;;;;;;;15.71;100.00;98419.27;4033669;86;21039;-85
2021/08/31 14:25:34;;;;;;;7.17;4.70;;;;;;;15.75;100.00;98422.14;3959805;88;21087;-85
2021/08/31 14:31:36;;;;;;;7.22;5.50;;;;;;;15.76;100.00;98427.83;4043334;86;21148;-83
2021/08/31 14:37:38;;;;;;;8.80;5.22;;;;;;;15.78;100.00;98430.95;4057123;86;21019;-85
2021/08/31 14:43:40;;;;;;;6.10;4.78;;;;;;;15.78;100.00;98428.78;4045254;86;21115;-85
2021/08/31 14:49:51;;;;;;;9.35;4.35;;;;;;;15.76;100.00;98436.70;4038209;87;21167;-85
2021/08/31 15:02:36;;;;;;;4.85;2.22;;;;;;;15.57;100.00;98450.05;4050614;85;21078;-85
2021/08/31 15:08:54;;;;;;;4.60;2.17;;;;;;;15.41;100.00;98447.16;4057008;86;21107;-85
2021/08/31 15:15:01;;;;;;;;;;;;;;;15.23;100.00;98446.66;4054332;86;21023;-85
2021/08/31 15:21:03;;;;;;;2.92;1.90;;;;;;;15.13;100.00;98444.84;4046000;86;20124;-85
2021/08/31 15:27:04;;;;;;;4.05;1.92;;;;;;;15.02;100.00;98450.32;4048436;86;21090;-85
2021/08/31 15:33:05;;;;;;;3.50;2.40;;;;;;;14.95;100.00;98432.53;4044155;86;21131;-86
2021/08/31 15:39:22;;;;;;;2.47;1.70;;;;;;;14.88;100.00;98440.30;4042959;86;21203;-86
2021/08/31 15:45:24;;;;;;;;;;;;;;;14.87;100.00;98444.85;4042831;86;21067;-86
2021/08/31 15:51:25;;;;;;;4.33;2.65;;;;;;;14.89;100.00;98457.00;4040640;86;20143;-85
2021/08/31 15:57:42;;;;;;;4.20;2.60;;;;;;;14.85;100.00;98438.97;4038889;86;21365;-85
2021/08/31 16:03:44;;;;;;;7.05;2.72;;;;;;;14.84;100.00;98450.61;4040371;86;21042;-85
2021/08/31 16:09:48;;;;;;;4.85;2.85;;;;;;;14.83;100.00;98445.52;4040580;86;21627;-85
2021/08/31 16:15:50;;;;;;;9.38;3.35;;;;;;;14.78;100.00;98449.52;4035391;86;21048;-85
2021/08/31 16:21:51;;;;;;;6.83;3.72;;;;;;;14.75;100.00;98446.81;4014036;87;21100;-86
2021/08/31 16:28:07;;;;;;;7.97;4.35;;;;;;;14.75;100.00;98450.33;3912654;83;5205759;-86
2021/08/31 16:34:09;;;;;;;9.25;3.98;;;;;;;14.76;100.00;98454.66;3970875;88;21617;-87
2021/08/31 16:40:14;;;;;;;9.83;3.83;;;;;;;14.74;100.00;98453.49;3904419;88;21151;-87
2021/08/31 16:46:15;;;;;;;8.35;5.30;;;;;;;14.73;100.00;98448.61;3903774;90;22451;-92
2021/08/31 16:52:38;;;;;;;9.65;6.22;;;;;;;14.67;100.00;98432.36;3790645;90;10000306;-87
2021/08/31 16:59:01;;;;;;;3.85;2.12;;;;;;;14.60;100.00;98432.45;3916928;89;21670;-85
2021/08/31 17:05:03;;;;;;;4.58;3.47;;;;;;;14.50;100.00;98418.21;4006154;87;21670;-85
2021/08/31 17:11:31;;;;;;;6.12;3.65;;;;;;;14.48;100.00;98434.98;4016667;87;21359;-85
2021/08/31 17:17:33;;;;;;;5.80;4.65;;;;;;;14.44;100.00;98446.03;4020137;86;22189;-86
2021/08/31 17:24:27;;;;;;;5.75;4.20;;;;;;;14.50;100.00;98441.62;3953103;88;21116;-86
2021/08/31 17:31:00;;;;;;;7.05;4.25;;;;;;;14.53;100.00;98454.59;4055755;86;21522;-86
2021/08/31 17:37:35;;;;;;;6.75;3.83;;;;;;;14.58;100.00;98453.34;4050262;86;21614;-85
2021/08/31 17:43:37;;;;;;;6.05;4.15;;;;;;;14.63;100.00;98463.88;4041247;86;21092;-86
2021/08/31 17:49:38;;;;;;;6.90;5.03;;;;;;;14.67;100.00;98473.68;3893207;90;21503;-87
2021/08/31 17:55:57;;;;;;;7.03;5.17;;;;;;;14.72;100.00;98484.83;4042509;86;21122;-85
2021/08/31 18:02:24;;;;;;;9.10;4.90;;;;;;;14.73;100.00;98486.38;4036739;86;21532;-85
2021/08/31 18:08:25;;;;;;;7.30;4.87;;;;;;;14.74;100.00;98494.23;4048619;86;22041;-85
2021/08/31 18:14:27;;;;;;;9.15;4.35;;;;;;;14.80;100.00;98502.83;4049374;86;21029;-85
2021/08/31 18:21:18;;;;;;;9.83;4.03;;;;;;;14.82;100.00;98514.98;4037918;86;21949;-87
2021/08/31 18:27:20;;;;;;;8.60;4.08;;;;;;;14.86;100.00;98524.59;4054203;86;21072;-86
2021/08/31 18:33:21;;;;;;;7.58;4.37;;;;;;;14.88;100.00;98524.94;3972950;88;21463;-86
2021/08/31 18:39:24;;;;;;;12.43;5.03;;;;;;;14.91;100.00;98527.66;4021839;86;21056;-85
2021/08/31 18:45:55;;;;;;;12.45;5.15;;;;;;;14.88;100.00;98532.62;4042821;86;21038;-85
2021/08/31 18:51:57;;;;;;;6.15;3.60;;;;;;;14.91;100.00;98544.19;4053835;86;21002;-84
2021/08/31 18:57:58;;;;;;;9.48;3.50;;;;;;;14.88;100.00;98543.64;4046429;86;21705;-86
2021/08/31 19:04:23;;;;;;;5.20;2.83;;;;;;;14.84;100.00;98551.77;4041546;86;21058;-85
2021/08/31 19:18:09;;;;;;;4.97;2.00;;;;;;;14.74;100.00;98559.56;3908671;89;21060;-85
2021/08/31 19:24:38;;;;;;;6.30;2.70;;;;;;;14.69;100.00;98555.30;3944274;89;21030;-85
2021/08/31 19:30:52;;;;;;;4.83;2.10;;;;;;;14.71;100.00;98559.02;3939157;89;21439;-84
2021/08/31 19:36:54;;;;;;;5.10;2.77;;;;;;;14.72;100.00;98559.98;3932600;89;21050;-86
2021/08/31 19:42:55;;;;;;;5.53;2.70;;;;;;;14.76;100.00;98555.22;3950723;89;21094;-85
2021/08/31 19:56:36;;;;;;;8.23;3.22;;;;;;;14.81;100.00;98564.41;3685963;95;21499;-85
2021/08/31 20:02:43;;;;;;;5.50;2.67;;;;;;;14.82;100.00;98574.23;3718905;90;21157;-86
2021/08/31 20:15:14;;;;;;;7.17;3.20;;;;;;;14.80;100.00;98584.88;3926391;88;21056;-85
2021/08/31 20:21:16;;;;;;;4.53;3.47;;;;;;;14.84;100.00;98594.48;3865432;90;21112;-86
2021/08/31 20:27:32;;;;;;;7.30;2.67;;;;;;;14.79;100.00;98599.06;3880316;90;21034;-85
2021/08/31 20:40:10;;;;;;;3.92;2.10;;;;;;;14.73;100.00;98618.04;3919105;89;21970;-84
2021/08/31 20:46:16;;;;;;;5.95;2.33;;;;;;;14.69;100.00;98631.67;3919891;89;21064;-86
2021/08/31 20:52:53;;;;;;;2.27;1.77;;;;;;;14.61;100.00;98638.45;3851369;90;21110;-85
2021/08/31 20:58:56;;;;;;;4.20;1.70;;;;;;;14.54;100.00;98648.15;3914888;89;21110;-85
2021/08/31 21:05:05;;;;;;;3.15;2.12;;;;;;;14.49;100.00;98660.98;3916246;89;21115;-84
2021/08/31 21:11:12;;;;;;;3.52;2.20;;;;;;;14.50;100.00;98674.34;3916689;89;21114;-85
2021/08/31 21:50:06;;;;;;;6.83;3.50;;;;;;;14.59;100.00;98727.59;3970898;83;9999653;-85
2021/08/31 21:56:09;;;;;;;;;;;;;;;14.61;100.00;98727.36;4197073;83;21047;-86
2021/08/31 22:02:10;;;;;;;7.65;4.37;;;;;;;14.61;100.00;98729.35;4032508;83;9999903;-86
2021/08/31 22:08:12;;;;;;;7.95;4.70;;;;;;;14.61;100.00;98735.63;4197147;83;21554;-84
2021/08/31 22:14:15;;;;;;;7.22;5.47;;;;;;;14.59;100.00;98735.27;4108123;85;21067;-84
2021/08/31 22:20:17;;;;;;;9.68;5.33;;;;;;;14.58;100.00;98740.57;4113128;85;21165;-84
2021/08/31 22:26:18;;;;;;;10.78;5.08;;;;;;;14.54;100.00;98750.06;4081923;86;21749;-85
2021/08/31 22:32:19;;;;;;;7.50;4.75;;;;;;;14.46;100.00;98749.92;4105499;85;21076;-84
2021/08/31 22:38:24;;;;;;;10.53;5.53;;;;;;;14.43;100.00;98755.66;4085051;86;21162;-83
2021/08/31 22:44:25;;;;;;;10.65;5.47;;;;;;;14.38;100.00;98762.18;4105744;85;21055;-84
2021/08/31 22:50:27;;;;;;;9.43;5.70;;;;;;;14.32;100.00;98763.80;4113327;85;21115;-83
2021/08/31 22:56:28;;;;;;;9.68;5.17;;;;;;;14.29;100.00;98765.41;4058556;86;21044;-84
2021/08/31 23:02:31;;;;;;;8.25;4.37;;;;;;;14.27;100.00;98773.28;4071868;86;21057;-84
2021/08/31 23:08:33;;;;;;;6.95;4.83;;;;;;;14.25;100.00;98785.90;4005277;87;21158;-85
2021/08/31 23:14:34;;;;;;;5.90;4.47;;;;;;;14.20;100.00;98779.59;4009098;87;21062;-84
2021/08/31 23:20:35;;;;;;;7.47;4.22;;;;;;;14.16;100.00;98783.55;4032919;87;21496;-84
2021/08/31 23:26:36;;;;;;;6.30;4.35;;;;;;;14.13;100.00;98789.28;4032131;87;21671;-85
2021/08/31 23:32:38;;;;;;;5.55;4.22;;;;;;;14.10;100.00;98782.42;4031155;87;21158;-84
2021/08/31 23:39:03;;;;;;;6.05;4.03;;;;;;;14.09;100.00;98785.75;3965925;88;21094;-84
2021/08/31 23:45:09;;;;;;;6.78;4.10;;;;;;;14.06;100.00;98786.56;3978900;88;21054;-83
2021/08/31 23:51:10;;;;;;;6.43;4.33;;;;;;;14.01;100.00;98788.97;3998332;88;21557;-84
2021/08/31 23:57:12;;;;;;;10.53;4.83;;;;;;;14.00;100.00;98797.05;4000713;88;21110;-84
